Tuesday, January 15, 2019, 6:31 PM CST
Back to Local

KGYY, Gary Regional

Location: Gary, IN, United States Lat: 41.617
Local Time: 6:31 PM CST ( 0:31 GMT) Lon: -87.417
Time Zone: US/Central Elev: 590 ft

Show me the last for .
Show Coded

Time T Td Feel RH Dir Speed Gust Alt SLP Vis Weather Sky Remarks
2019-01-15 17:45 28 27 13 92 240° 17 30 30.09 - 7 OVC008 None
2019-01-15 16:45 28 27 14 92 230° 13 25 30.10 - 10 OVC008 None
2019-01-15 15:45 30 27 17 86 230° 12 23 30.11 - 10 OVC010 None
2019-01-15 14:45 30 25 16 80 240° 14 28 30.12 - 10 OVC012 None
2019-01-15 13:45 30 25 17 80 250° 12 23 30.14 - 10 OVC012 None
2019-01-15 12:45 30 25 17 80 240° 12 23 30.15 - 10 OVC012 None
2019-01-15 11:45 28 23 17 79 240° 14 - 30.18 - 7 OVC014 None
2019-01-15 10:45 28 23 18 79 250° 12 - 30.23 - 7 BKN012 OVC018 None
2019-01-15 09:45 28 25 19 86 240° 10 - 30.23 - 7 SCT009 OVC018 None
2019-01-15 08:45 28 25 20 86 230° 8 - 30.23 - 5 BR BKN009 OVC018 None
2019-01-15 07:45 28 25 22 86 250° 6 - 30.22 - 5 BR OVC011 None
2019-01-15 06:45 28 25 20 86 240° 8 - 30.23 - 7 OVC009 None
2019-01-15 05:45 27 25 17 92 250° 10 - 30.23 - 5 BR OVC009 None
2019-01-15 04:45 27 25 18 92 260° 8 - 30.23 - 3 BR OVC007 None
2019-01-15 04:15 27 25 22 92 240° 5 - 30.23 - 5 BR OVC009 None
2019-01-15 03:55 28 25 24 90 240° 3 - 30.24 - 5 BR OVC009 None
2019-01-15 03:35 27 25 22 89 240° 5 - 30.25 - 7 BKN009 OVC017 None
2019-01-15 03:15 27 24 22 88 230° 5 - 30.25 - 7 BKN015 OVC020 None
2019-01-15 02:55 28 24 22 87 240° 5 - 30.26 - 7 OVC017 None
2019-01-15 02:35 27 25 21 90 240° 6 - 30.26 - 7 SCT009 OVC017 None
2019-01-15 02:15 27 25 19 91 250° 7 - 30.25 - 5 BR OVC009 None
2019-01-15 01:55 27 25 19 91 260° 8 - 30.26 - 5 BR OVC009 None
2019-01-15 01:35 27 24 18 91 260° 8 - 30.25 - 5 BR OVC009 None
2019-01-15 01:15 27 24 19 90 260° 7 - 30.25 - 5 BR OVC009 None
2019-01-15 00:55 27 24 17 89 250° 9 - 30.25 - 5 BR OVC009 None
2019-01-15 00:35 27 24 17 89 250° 9 - 30.25 - 5 BR OVC009 None
2019-01-15 00:15 26 24 18 90 260° 8 - 30.26 - 5 BR OVC009 None
2019-01-14 23:55 26 24 18 90 250° 8 - 30.27 - 5 BR OVC009 6-hr Min Temp (12am): 25.2°F
6-hr Max Temp (12am): 28.0°F
24-hr Min Temp (12am): 14.9°F
24-hr Max Temp (12am): 29.8°F
2019-01-14 23:35 26 23 17 90 260° 8 - 30.28 - 5 BR OVC009 None
2019-01-14 23:15 26 23 16 89 240° 9 - 30.28 - 7 OVC009 None
2019-01-14 22:55 25 22 17 88 250° 8 - 30.28 - 7 OVC009 None
2019-01-14 22:35 25 22 17 87 250° 7 - 30.29 - 7 OVC011 None
2019-01-14 22:15 25 22 15 86 260° 10 - 30.29 - 7 OVC011 None
2019-01-14 21:45 27 21 17 79 280° 9 - 30.29 - 7 OVC011 None
2019-01-14 20:45 27 23 20 86 230° 6 - 30.29 - 7 OVC011 None
2019-01-14 19:45 25 23 17 92 240° 7 - 30.30 - 7 OVC0131 None
2019-01-14 18:45 27 21 18 79 230° 8 - 30.30 - 7 OVC013 None

Support USWX by starting your Amazon purchase here.